createdAt,value
2019-01-12T00:00:33.053Z,2.60
2019-01-12T00:01:36.601Z,2.95
2019-01-12T00:02:40.134Z,3.02
2019-01-12T00:03:43.709Z,3.42
2019-01-12T00:04:47.246Z,2.58
2019-01-12T00:05:50.782Z,2.70
2019-01-12T00:06:54.250Z,3.25
2019-01-12T00:07:57.791Z,2.90
2019-01-12T00:09:01.369Z,2.42
2019-01-12T00:10:08.150Z,3.15
2019-01-12T00:11:11.689Z,3.27
2019-01-12T00:12:15.233Z,2.90
2019-01-12T00:13:18.877Z,3.45
2019-01-12T00:14:22.342Z,3.50
2019-01-12T00:15:25.894Z,3.42
2019-01-12T00:16:29.437Z,2.87
2019-01-12T00:17:33.031Z,3.25
2019-01-12T00:18:36.554Z,3.00
2019-01-12T00:19:40.126Z,3.50
2019-01-12T00:20:43.707Z,4.05
2019-01-12T00:21:47.338Z,4.35
2019-01-12T00:22:50.870Z,2.60
2019-01-12T00:23:54.493Z,3.10
2019-01-12T00:24:58.077Z,3.60
2019-01-12T00:26:01.610Z,3.20
2019-01-12T00:27:05.146Z,2.55
2019-01-12T00:28:08.691Z,3.00
2019-01-12T00:29:12.231Z,2.55
2019-01-12T00:30:16.074Z,3.27
2019-01-12T00:31:19.620Z,2.40
2019-01-12T00:32:23.162Z,2.85
2019-01-12T00:33:26.710Z,2.50
2019-01-12T00:34:30.217Z,2.58
2019-01-12T00:35:33.769Z,4.05
2019-01-12T00:36:37.338Z,3.35
2019-01-12T00:37:40.887Z,3.80
2019-01-12T00:38:44.501Z,3.80
2019-01-12T00:39:48.083Z,3.47
2019-01-12T00:40:51.610Z,3.02
2019-01-12T00:41:55.146Z,2.75
2019-01-12T00:42:58.650Z,2.62
2019-01-12T00:44:02.195Z,2.87
2019-01-12T00:45:09.145Z,3.70
2019-01-12T00:46:12.619Z,2.52
2019-01-12T00:47:16.154Z,3.27
2019-01-12T00:48:19.731Z,3.33
2019-01-12T00:49:23.274Z,2.37
2019-01-12T00:50:26.753Z,3.20
2019-01-12T00:51:30.283Z,3.08
2019-01-12T00:52:33.831Z,3.12
2019-01-12T00:53:37.413Z,3.30
2019-01-12T00:54:40.949Z,3.35
2019-01-12T00:55:44.417Z,2.77
2019-01-12T00:56:47.957Z,3.80
2019-01-12T00:57:51.522Z,3.30
2019-01-12T00:58:55.103Z,3.17
2019-01-12T00:59:58.646Z,3.20
2019-01-12T01:01:02.189Z,2.87
2019-01-12T01:02:05.729Z,3.70
2019-01-12T01:03:09.310Z,2.75
2019-01-12T01:04:12.846Z,3.05
2019-01-12T01:05:16.526Z,4.00
2019-01-12T01:06:20.070Z,4.15
2019-01-12T01:07:23.609Z,3.55
2019-01-12T01:08:27.186Z,3.33
2019-01-12T01:09:30.730Z,2.80
2019-01-12T01:10:34.309Z,4.03
2019-01-12T01:11:37.855Z,2.72
2019-01-12T01:12:41.394Z,3.87
2019-01-12T01:13:44.865Z,3.10
2019-01-12T01:14:48.436Z,3.12
2019-01-12T01:15:51.975Z,4.15
2019-01-12T01:16:55.513Z,3.65
2019-01-12T01:17:59.057Z,3.33
2019-01-12T01:19:02.564Z,3.15
2019-01-12T01:20:08.955Z,3.35
2019-01-12T01:21:12.503Z,3.25
2019-01-12T01:22:16.041Z,2.72
2019-01-12T01:23:19.510Z,3.10
2019-01-12T01:24:23.086Z,3.27
2019-01-12T01:25:26.622Z,3.12
2019-01-12T01:26:30.094Z,3.25
2019-01-12T01:27:33.635Z,3.05
2019-01-12T01:28:37.139Z,2.80
2019-01-12T01:29:40.686Z,3.60
2019-01-12T01:30:44.264Z,2.85
2019-01-12T01:31:47.808Z,2.77
2019-01-12T01:32:51.358Z,3.45
2019-01-12T01:33:54.894Z,3.37
2019-01-12T01:34:58.448Z,3.10
2019-01-12T01:36:02.022Z,2.70
2019-01-12T01:37:05.590Z,3.62
2019-01-12T01:38:09.133Z,3.17
2019-01-12T01:39:12.669Z,2.33
2019-01-12T01:40:17.114Z,3.22
2019-01-12T01:41:20.658Z,3.60
2019-01-12T01:42:24.239Z,2.58
2019-01-12T01:43:27.789Z,2.83
2019-01-12T01:44:31.317Z,2.30
2019-01-12T01:45:34.787Z,2.52
2019-01-12T01:46:38.374Z,2.98
2019-01-12T01:47:41.918Z,3.37
2019-01-12T01:48:45.456Z,2.47
2019-01-12T01:49:49.004Z,2.42
2019-01-12T01:50:52.546Z,2.70
2019-01-12T01:51:56.126Z,3.33
2019-01-12T01:52:59.670Z,2.10
2019-01-12T01:54:03.218Z,2.20
2019-01-12T01:55:07.703Z,2.45
2019-01-12T01:56:11.239Z,2.72
2019-01-12T01:57:14.819Z,2.70
2019-01-12T01:58:18.361Z,2.77
2019-01-12T01:59:21.902Z,4.20
2019-01-12T02:00:25.451Z,3.37
2019-01-12T02:01:28.993Z,2.77
2019-01-12T02:02:32.493Z,2.58
2019-01-12T02:03:36.034Z,2.85
2019-01-12T02:04:39.574Z,2.25
2019-01-12T02:05:43.126Z,3.02
2019-01-12T02:06:46.665Z,3.08
2019-01-12T02:07:50.246Z,2.62
2019-01-12T02:08:53.778Z,2.37
2019-01-12T02:09:57.247Z,2.65
2019-01-12T02:11:00.834Z,2.40
2019-01-12T02:12:04.514Z,2.60
2019-01-12T02:13:08.059Z,2.17
2019-01-12T02:14:11.598Z,2.60
2019-01-12T02:15:17.086Z,2.58
2019-01-12T02:16:20.659Z,3.20
2019-01-12T02:17:24.206Z,2.80
2019-01-12T02:18:27.749Z,2.47
2019-01-12T02:19:31.286Z,2.02
2019-01-12T02:20:34.830Z,2.12
2019-01-12T02:21:38.337Z,2.30
2019-01-12T02:22:41.882Z,2.60
2019-01-12T02:23:45.421Z,2.40
2019-01-12T02:24:48.968Z,2.40
2019-01-12T02:25:52.517Z,2.75
2019-01-12T02:26:56.092Z,2.77
2019-01-12T02:27:59.630Z,2.52
2019-01-12T02:29:03.170Z,2.65
2019-01-12T02:30:09.721Z,1.85
2019-01-12T02:31:13.258Z,2.25
2019-01-12T02:32:16.838Z,3.15
2019-01-12T02:33:20.308Z,2.05
2019-01-12T02:34:23.847Z,2.50
2019-01-12T02:35:27.419Z,2.37
2019-01-12T02:36:30.961Z,2.17
2019-01-12T02:37:34.548Z,2.25
2019-01-12T02:38:38.086Z,2.98
2019-01-12T02:39:41.628Z,1.90
2019-01-12T02:40:45.174Z,2.45
2019-01-12T02:41:48.740Z,1.70
2019-01-12T02:42:52.283Z,2.60
2019-01-12T02:43:55.828Z,1.82
2019-01-12T02:44:59.405Z,2.15
2019-01-12T02:46:02.942Z,1.82
2019-01-12T02:47:06.514Z,2.33
2019-01-12T02:48:09.975Z,2.27
2019-01-12T02:49:13.478Z,1.82
2019-01-12T02:50:17.016Z,2.40
2019-01-12T02:51:20.595Z,1.90
2019-01-12T02:52:24.134Z,2.10
2019-01-12T02:53:27.674Z,2.00
2019-01-12T02:54:31.209Z,2.25
2019-01-12T02:55:34.684Z,1.72
2019-01-12T02:56:38.251Z,1.95
2019-01-12T02:57:41.802Z,2.00
2019-01-12T02:58:45.343Z,2.30
2019-01-12T02:59:48.884Z,1.75
2019-01-12T03:00:52.533Z,1.85
2019-01-12T03:01:56.111Z,1.95
2019-01-12T03:02:59.652Z,2.02
2019-01-12T03:04:03.260Z,1.80
2019-01-12T03:05:07.038Z,2.12
2019-01-12T03:06:10.615Z,1.90
2019-01-12T03:07:14.155Z,1.57
2019-01-12T03:08:17.694Z,2.30
2019-01-12T03:09:21.161Z,1.80
2019-01-12T03:10:24.709Z,2.00
2019-01-12T03:11:28.286Z,2.12
2019-01-12T03:12:31.829Z,2.40
2019-01-12T03:13:35.360Z,1.45
2019-01-12T03:14:38.898Z,1.70
2019-01-12T03:15:42.439Z,1.90
2019-01-12T03:16:46.024Z,2.65
2019-01-12T03:17:49.555Z,1.60
2019-01-12T03:18:53.090Z,2.00
2019-01-12T03:19:56.643Z,2.00
2019-01-12T03:21:00.187Z,1.60
2019-01-12T03:22:03.762Z,1.77
2019-01-12T03:23:07.328Z,1.30
2019-01-12T03:24:10.873Z,2.20
2019-01-12T03:25:18.753Z,2.80
2019-01-12T03:26:19.775Z,4.95
2019-01-12T03:27:23.371Z,4.85
2019-01-12T03:28:26.898Z,3.00
2019-01-12T03:29:30.443Z,2.75
2019-01-12T03:30:36.271Z,2.75
2019-01-12T03:31:39.240Z,1.90
2019-01-12T03:32:42.783Z,1.70
2019-01-12T03:33:46.332Z,2.17
2019-01-12T03:34:49.966Z,2.20
2019-01-12T03:35:53.426Z,2.83
2019-01-12T03:36:56.935Z,1.85
2019-01-12T03:38:00.507Z,3.00
2019-01-12T03:39:06.594Z,2.70
2019-01-12T03:40:13.450Z,2.10
2019-01-12T03:41:16.986Z,2.45
2019-01-12T03:42:20.526Z,1.90
2019-01-12T03:43:24.090Z,2.00
2019-01-12T03:44:27.556Z,3.08
2019-01-12T03:45:31.170Z,2.08
2019-01-12T03:46:34.662Z,1.85
2019-01-12T03:47:38.198Z,1.85
2019-01-12T03:48:41.779Z,1.77
2019-01-12T03:49:45.309Z,2.20
2019-01-12T03:50:48.846Z,2.80
2019-01-12T03:51:52.430Z,2.20
2019-01-12T03:52:55.970Z,2.05
2019-01-12T03:53:59.546Z,2.70
2019-01-12T03:55:03.009Z,2.42
2019-01-12T03:56:06.544Z,2.12
2019-01-12T03:57:10.085Z,2.05
2019-01-12T03:58:13.621Z,2.58
2019-01-12T03:59:17.126Z,1.67
2019-01-12T04:00:21.897Z,1.60
2019-01-12T04:01:25.429Z,2.20
2019-01-12T04:02:28.936Z,1.98
2019-01-12T04:03:32.483Z,2.00
2019-01-12T04:04:37.974Z,2.08
2019-01-12T04:05:41.250Z,1.65
2019-01-12T04:06:44.783Z,1.72
2019-01-12T04:07:48.394Z,1.77
2019-01-12T04:08:51.938Z,2.17
2019-01-12T04:09:55.568Z,1.80
2019-01-12T04:10:59.106Z,1.80
2019-01-12T04:12:02.571Z,1.60
2019-01-12T04:13:06.106Z,1.77
2019-01-12T04:14:09.577Z,1.60
2019-01-12T04:15:13.940Z,1.32
2019-01-12T04:16:17.734Z,1.50
2019-01-12T04:17:21.270Z,2.02
2019-01-12T04:18:24.738Z,1.47
2019-01-12T04:19:28.274Z,2.00
2019-01-12T04:20:31.841Z,1.50
2019-01-12T04:21:35.302Z,1.50
2019-01-12T04:22:38.765Z,1.10
2019-01-12T04:23:42.329Z,1.05
2019-01-12T04:24:45.911Z,1.57
2019-01-12T04:25:49.450Z,1.27
2019-01-12T04:26:53.024Z,1.40
2019-01-12T04:27:56.561Z,1.70
2019-01-12T04:29:00.099Z,1.45
2019-01-12T04:30:05.107Z,1.45
2019-01-12T04:31:08.718Z,1.52
2019-01-12T04:32:12.219Z,1.90
2019-01-12T04:33:15.750Z,1.22
2019-01-12T04:34:19.214Z,1.32
2019-01-12T04:35:22.753Z,1.42
2019-01-12T04:36:26.319Z,1.40
2019-01-12T04:37:29.786Z,1.45
2019-01-12T04:38:33.362Z,1.20
2019-01-12T04:39:36.899Z,1.50
2019-01-12T04:40:40.442Z,1.40
2019-01-12T04:41:43.982Z,1.40
2019-01-12T04:42:47.519Z,1.27
2019-01-12T04:43:51.083Z,1.70
2019-01-12T04:44:54.621Z,1.50
2019-01-12T04:45:58.153Z,1.15
2019-01-12T04:47:01.642Z,1.55
2019-01-12T04:48:05.102Z,1.42
2019-01-12T04:49:08.642Z,1.55
2019-01-12T04:50:14.228Z,1.20
2019-01-12T04:51:17.801Z,1.25
2019-01-12T04:52:21.410Z,1.60
2019-01-12T04:53:24.949Z,1.60
2019-01-12T04:54:28.526Z,1.70
2019-01-12T04:55:32.063Z,1.35
2019-01-12T04:56:35.647Z,1.40
2019-01-12T04:57:39.182Z,1.25
2019-01-12T04:58:42.651Z,1.70
2019-01-12T04:59:46.230Z,1.35
2019-01-12T05:00:49.774Z,1.30
2019-01-12T05:01:53.312Z,1.20
2019-01-12T05:02:56.850Z,1.00
2019-01-12T05:04:00.392Z,1.10
2019-01-12T05:05:04.802Z,1.17
2019-01-12T05:06:08.346Z,1.45
2019-01-12T05:07:11.922Z,1.30
2019-01-12T05:08:15.462Z,1.30
2019-01-12T05:09:18.993Z,1.25
2019-01-12T05:10:22.538Z,1.20
2019-01-12T05:11:26.109Z,1.25
2019-01-12T05:12:29.579Z,1.25
2019-01-12T05:13:33.118Z,1.10
2019-01-12T05:14:36.692Z,1.27
2019-01-12T05:15:40.253Z,1.10
2019-01-12T05:16:43.743Z,1.02
2019-01-12T05:17:47.285Z,1.10
2019-01-12T05:18:50.818Z,1.20
2019-01-12T05:19:54.388Z,1.17
2019-01-12T05:20:57.974Z,1.00
2019-01-12T05:22:01.513Z,1.15
2019-01-12T05:23:05.067Z,1.00
2019-01-12T05:24:08.602Z,1.50
2019-01-12T05:25:12.062Z,1.40
2019-01-12T05:26:15.635Z,1.47
2019-01-12T05:27:19.101Z,1.15
2019-01-12T05:28:22.682Z,1.10
2019-01-12T05:29:26.259Z,0.90
2019-01-12T05:30:29.800Z,1.00
2019-01-12T05:31:33.370Z,0.85
2019-01-12T05:32:36.902Z,0.93
2019-01-12T05:33:40.442Z,0.90
2019-01-12T05:34:43.973Z,0.93
2019-01-12T05:35:47.444Z,0.88
2019-01-12T05:36:51.013Z,0.95
2019-01-12T05:37:54.478Z,0.80
2019-01-12T05:38:58.014Z,0.90
2019-01-12T05:40:01.506Z,1.07
2019-01-12T05:41:04.965Z,0.80
2019-01-12T05:42:08.481Z,0.90
2019-01-12T05:43:12.030Z,1.10
2019-01-12T05:44:15.579Z,1.15
2019-01-12T05:45:19.118Z,0.93
2019-01-12T05:46:22.656Z,0.70
2019-01-12T05:47:26.217Z,1.05
2019-01-12T05:48:29.775Z,0.82
2019-01-12T05:49:33.327Z,0.95
2019-01-12T05:50:36.855Z,0.88
2019-01-12T05:51:40.393Z,1.00
2019-01-12T05:52:43.861Z,0.80
2019-01-12T05:53:47.429Z,1.32
2019-01-12T05:54:50.895Z,0.90
2019-01-12T05:55:58.103Z,0.90
2019-01-12T05:56:59.669Z,1.00
2019-01-12T05:58:03.202Z,1.47
2019-01-12T05:59:06.670Z,1.20
2019-01-12T06:00:13.618Z,1.00
2019-01-12T06:01:17.166Z,1.27
2019-01-12T06:02:20.672Z,0.95
2019-01-12T06:03:24.210Z,1.05
2019-01-12T06:04:27.749Z,1.47
2019-01-12T06:05:31.215Z,1.40
2019-01-12T06:06:34.782Z,1.20
2019-01-12T06:07:38.256Z,1.20
2019-01-12T06:08:41.798Z,1.07
2019-01-12T06:09:45.329Z,1.67
2019-01-12T06:10:48.902Z,1.40
2019-01-12T06:11:52.365Z,1.20
2019-01-12T06:12:55.867Z,1.65
2019-01-12T06:13:59.402Z,2.10
2019-01-12T06:15:02.871Z,1.37
2019-01-12T06:16:06.430Z,1.47
2019-01-12T06:17:09.974Z,1.65
2019-01-12T06:18:13.546Z,1.35
2019-01-12T06:19:17.089Z,1.50
2019-01-12T06:20:20.623Z,1.20
2019-01-12T06:21:24.087Z,1.25
2019-01-12T06:22:27.629Z,1.10
2019-01-12T06:23:31.202Z,1.35
2019-01-12T06:24:34.666Z,1.30
2019-01-12T06:25:38.130Z,1.37
2019-01-12T06:26:41.674Z,1.30
2019-01-12T06:27:45.222Z,1.10
2019-01-12T06:28:48.783Z,1.25
2019-01-12T06:29:52.260Z,1.70
2019-01-12T06:30:55.786Z,1.30
2019-01-12T06:31:59.318Z,1.15
2019-01-12T06:33:02.821Z,1.45
2019-01-12T06:34:06.368Z,1.35
2019-01-12T06:35:10.038Z,1.30
2019-01-12T06:36:13.577Z,1.10
2019-01-12T06:37:17.082Z,1.00
2019-01-12T06:38:20.551Z,0.90
2019-01-12T06:39:24.090Z,1.00
2019-01-12T06:40:27.658Z,0.95
2019-01-12T06:41:31.146Z,1.00
2019-01-12T06:42:34.688Z,0.90
2019-01-12T06:43:38.290Z,1.20
2019-01-12T06:44:41.863Z,1.17
2019-01-12T06:45:45.404Z,1.20
2019-01-12T06:46:48.949Z,0.90
2019-01-12T06:47:52.485Z,0.80
2019-01-12T06:48:56.059Z,0.90
2019-01-12T06:49:59.589Z,1.00
2019-01-12T06:51:03.056Z,1.10
2019-01-12T06:52:06.775Z,0.85
2019-01-12T06:53:10.315Z,1.10
2019-01-12T06:54:13.891Z,0.95
2019-01-12T06:55:17.457Z,0.70
2019-01-12T06:56:20.924Z,1.30
2019-01-12T06:57:24.453Z,1.30
2019-01-12T06:58:27.918Z,1.02
2019-01-12T06:59:31.458Z,0.90
2019-01-12T07:00:34.954Z,0.90
2019-01-12T07:01:38.423Z,1.10
2019-01-12T07:02:42.026Z,1.00
2019-01-12T07:03:45.491Z,0.95
2019-01-12T07:04:49.028Z,0.93
2019-01-12T07:05:52.599Z,1.00
2019-01-12T07:06:56.158Z,0.90
2019-01-12T07:07:59.701Z,0.90
2019-01-12T07:09:04.477Z,1.20
2019-01-12T07:10:14.090Z,1.02
2019-01-12T07:11:17.638Z,1.00
2019-01-12T07:12:21.102Z,1.20
2019-01-12T07:13:24.638Z,1.22
2019-01-12T07:14:28.104Z,1.00
2019-01-12T07:15:31.674Z,0.90
2019-01-12T07:16:35.133Z,1.00
2019-01-12T07:17:38.602Z,1.10
2019-01-12T07:18:42.070Z,1.20
2019-01-12T07:19:45.606Z,1.15
2019-01-12T07:20:49.107Z,1.25
2019-01-12T07:21:52.639Z,1.20
2019-01-12T07:22:56.102Z,1.00
2019-01-12T07:23:59.634Z,1.15
2019-01-12T07:25:03.094Z,1.00
2019-01-12T07:26:06.592Z,1.20
2019-01-12T07:27:10.130Z,1.05
2019-01-12T07:28:13.593Z,1.27
2019-01-12T07:29:17.162Z,1.35
2019-01-12T07:30:21.378Z,1.10
2019-01-12T07:31:24.931Z,1.02
2019-01-12T07:32:28.462Z,1.10
2019-01-12T07:33:32.037Z,1.40
2019-01-12T07:34:35.574Z,1.20
2019-01-12T07:35:39.038Z,1.40
2019-01-12T07:36:42.569Z,1.15
2019-01-12T07:37:46.079Z,1.00
2019-01-12T07:38:49.618Z,1.00
2019-01-12T07:39:53.199Z,1.20
2019-01-12T07:40:56.737Z,1.55
2019-01-12T07:42:00.311Z,1.20
2019-01-12T07:43:03.978Z,1.10
2019-01-12T07:44:07.514Z,1.47
2019-01-12T07:45:11.396Z,1.20
2019-01-12T07:46:14.926Z,1.30
2019-01-12T07:47:18.389Z,1.07
2019-01-12T07:48:21.890Z,0.90
2019-01-12T07:49:27.006Z,1.55
2019-01-12T07:50:30.709Z,1.12
2019-01-12T07:51:34.174Z,1.30
2019-01-12T07:52:37.714Z,1.25
2019-01-12T07:53:41.245Z,1.57
2019-01-12T07:54:44.714Z,1.20
2019-01-12T07:55:48.285Z,1.45
2019-01-12T07:56:51.823Z,1.32
2019-01-12T07:57:55.402Z,1.30
2019-01-12T07:58:58.946Z,1.62
2019-01-12T08:00:02.548Z,1.40
2019-01-12T08:01:06.090Z,1.60
2019-01-12T08:02:09.698Z,1.55
2019-01-12T08:03:13.344Z,1.90
2019-01-12T08:04:16.959Z,2.17
2019-01-12T08:05:22.443Z,1.77
2019-01-12T08:06:25.982Z,1.95
2019-01-12T08:07:29.515Z,1.70
2019-01-12T08:08:33.054Z,1.65
2019-01-12T08:09:36.513Z,1.62
2019-01-12T08:10:40.087Z,1.85
2019-01-12T08:11:43.622Z,1.67
2019-01-12T08:12:47.225Z,1.65
2019-01-12T08:13:50.691Z,2.20
2019-01-12T08:14:54.236Z,1.47
2019-01-12T08:15:57.822Z,1.45
2019-01-12T08:17:01.350Z,1.45
2019-01-12T08:18:04.889Z,2.17
2019-01-12T08:19:08.423Z,1.37
2019-01-12T08:20:12.218Z,1.22
2019-01-12T08:21:15.727Z,1.27
2019-01-12T08:22:19.262Z,1.70
2019-01-12T08:23:22.839Z,1.92
2019-01-12T08:24:26.378Z,2.00
2019-01-12T08:25:29.923Z,1.80
2019-01-12T08:26:33.463Z,2.40
2019-01-12T08:27:37.006Z,1.98
2019-01-12T08:28:40.590Z,2.17
2019-01-12T08:29:44.133Z,2.00
2019-01-12T08:30:47.717Z,2.08
2019-01-12T08:31:51.246Z,2.30
2019-01-12T08:32:54.790Z,2.22
2019-01-12T08:33:58.334Z,2.20
2019-01-12T08:35:01.805Z,2.00
2019-01-12T08:36:05.449Z,2.05
2019-01-12T08:37:08.991Z,2.45
2019-01-12T08:38:12.538Z,2.52
2019-01-12T08:39:16.114Z,2.35
2019-01-12T08:40:19.662Z,2.15
2019-01-12T08:41:23.202Z,2.40
2019-01-12T08:42:27.181Z,2.10
2019-01-12T08:43:30.805Z,2.05
2019-01-12T08:44:34.383Z,2.37
2019-01-12T08:45:37.998Z,2.50
2019-01-12T08:46:41.541Z,2.00
2019-01-12T08:47:45.125Z,2.40
2019-01-12T08:48:48.665Z,2.20
2019-01-12T08:49:52.219Z,2.22
2019-01-12T08:50:55.688Z,2.02
2019-01-12T08:51:59.227Z,2.50
2019-01-12T08:53:02.795Z,2.30
2019-01-12T08:54:06.307Z,2.62
2019-01-12T08:55:11.421Z,2.75
2019-01-12T08:56:14.967Z,2.02
2019-01-12T08:57:18.506Z,2.30
2019-01-12T08:58:22.097Z,2.60
2019-01-12T08:59:25.639Z,2.50
2019-01-12T09:00:29.182Z,2.40
2019-01-12T09:01:32.717Z,3.20
2019-01-12T09:02:36.260Z,2.35
2019-01-12T09:03:39.831Z,3.00
2019-01-12T09:04:43.782Z,2.77
2019-01-12T09:05:47.406Z,2.92
2019-01-12T09:06:50.882Z,3.33
2019-01-12T09:07:54.454Z,2.85
2019-01-12T09:08:58.068Z,3.00
2019-01-12T09:10:01.603Z,3.60
2019-01-12T09:11:05.202Z,3.50
2019-01-12T09:12:08.738Z,3.95
2019-01-12T09:13:12.285Z,3.55
2019-01-12T09:14:15.851Z,3.50
2019-01-12T09:15:19.499Z,3.83
2019-01-12T09:16:23.047Z,3.40
2019-01-12T09:17:26.639Z,4.00
2019-01-12T09:18:30.175Z,3.95
2019-01-12T09:19:33.711Z,3.92
2019-01-12T09:20:37.246Z,3.50
2019-01-12T09:21:40.722Z,4.10
2019-01-12T09:22:44.662Z,3.90
2019-01-12T09:23:48.198Z,3.95
2019-01-12T09:24:51.701Z,4.25
2019-01-12T09:25:55.250Z,4.67
2019-01-12T09:26:58.790Z,4.58
2019-01-12T09:28:02.330Z,4.55
2019-01-12T09:29:05.930Z,4.60
2019-01-12T09:30:18.201Z,4.60
2019-01-12T09:31:21.739Z,4.45
2019-01-12T09:32:25.278Z,4.17
2019-01-12T09:33:28.842Z,4.87
2019-01-12T09:34:32.306Z,5.30
2019-01-12T09:35:36.075Z,5.37
2019-01-12T09:36:39.745Z,5.10
2019-01-12T09:37:43.343Z,5.05
2019-01-12T09:38:46.806Z,4.70
2019-01-12T09:39:50.347Z,5.10
2019-01-12T09:40:53.914Z,4.55
2019-01-12T09:41:57.502Z,5.33
2019-01-12T09:43:01.039Z,5.17
2019-01-12T09:44:04.650Z,6.10
2019-01-12T09:45:10.431Z,5.65
2019-01-12T09:46:13.968Z,5.30
2019-01-12T09:47:17.554Z,5.55
2019-01-12T09:48:21.094Z,6.22
2019-01-12T09:49:24.636Z,5.45
2019-01-12T09:50:28.178Z,6.03
2019-01-12T09:51:31.738Z,5.80
2019-01-12T09:52:35.314Z,6.80
2019-01-12T09:53:38.850Z,6.75
2019-01-12T09:54:42.381Z,6.58
2019-01-12T09:55:45.850Z,6.22
2019-01-12T09:56:51.907Z,6.80
2019-01-12T09:57:54.681Z,6.28
2019-01-12T09:58:58.226Z,7.40
2019-01-12T10:00:01.768Z,7.30
2019-01-12T10:01:05.375Z,7.05
2019-01-12T10:02:08.962Z,7.75
2019-01-12T10:03:12.426Z,6.22
2019-01-12T10:04:15.966Z,7.25
2019-01-12T10:05:19.510Z,7.35
2019-01-12T10:06:23.049Z,6.10
2019-01-12T10:07:26.628Z,7.35
2019-01-12T10:08:30.174Z,8.40
2019-01-12T10:09:33.710Z,7.30
2019-01-12T10:10:37.318Z,6.83
2019-01-12T10:11:40.853Z,6.85
2019-01-12T10:12:44.442Z,7.67
2019-01-12T10:13:47.914Z,5.97
2019-01-12T10:14:51.454Z,7.95
2019-01-12T10:15:54.989Z,7.90
2019-01-12T10:16:58.530Z,8.98
2019-01-12T10:18:02.106Z,8.40
2019-01-12T10:19:05.646Z,7.28
2019-01-12T10:20:15.113Z,7.78
2019-01-12T10:21:18.697Z,8.63
2019-01-12T10:22:28.414Z,7.60
2019-01-12T10:23:27.427Z,7.60
2019-01-12T10:24:30.962Z,6.67
2019-01-12T10:25:34.502Z,8.05
2019-01-12T10:26:38.090Z,7.60
2019-01-12T10:27:41.629Z,8.68
2019-01-12T10:28:45.277Z,8.23
2019-01-12T10:29:48.821Z,8.40
2019-01-12T10:30:52.361Z,8.03
2019-01-12T10:31:55.943Z,8.03
2019-01-12T10:32:59.626Z,8.10
2019-01-12T10:34:03.161Z,7.70
2019-01-12T10:35:08.043Z,7.80
2019-01-12T10:36:11.701Z,9.00
2019-01-12T10:37:15.237Z,8.70
2019-01-12T10:38:19.514Z,7.37
2019-01-12T10:39:22.979Z,7.70
2019-01-12T10:40:26.518Z,8.08
2019-01-12T10:41:30.171Z,8.60
2019-01-12T10:42:33.758Z,8.40
2019-01-12T10:43:37.308Z,8.63
2019-01-12T10:44:40.846Z,8.85
2019-01-12T10:45:44.385Z,7.83
2019-01-12T10:46:47.926Z,9.78
2019-01-12T10:47:52.348Z,8.60
2019-01-12T10:48:55.906Z,7.92
2019-01-12T10:49:59.453Z,8.13
2019-01-12T10:51:03.044Z,8.25
2019-01-12T10:52:06.602Z,8.20
2019-01-12T10:53:10.197Z,8.10
2019-01-12T10:54:13.739Z,9.03
2019-01-12T10:55:17.281Z,8.65
2019-01-12T10:56:21.356Z,8.08
2019-01-12T10:57:24.974Z,8.70
2019-01-12T10:58:28.498Z,7.97
2019-01-12T10:59:32.072Z,9.00
2019-01-12T11:00:35.875Z,8.53
2019-01-12T11:01:39.430Z,9.83
2019-01-12T11:02:42.974Z,7.58
2019-01-12T11:03:46.546Z,7.85
2019-01-12T11:04:50.145Z,6.30
2019-01-12T11:05:53.691Z,8.20
2019-01-12T11:06:57.227Z,8.08
2019-01-12T11:08:00.693Z,7.65
2019-01-12T11:09:07.087Z,7.37
2019-01-12T11:10:12.655Z,7.05
2019-01-12T11:11:16.121Z,7.90
2019-01-12T11:12:19.663Z,6.90
2019-01-12T11:13:23.198Z,7.40
2019-01-12T11:14:26.713Z,8.33
2019-01-12T11:15:30.246Z,7.30
2019-01-12T11:16:33.804Z,7.10
2019-01-12T11:17:37.322Z,7.40
2019-01-12T11:18:40.863Z,6.97
2019-01-12T11:19:44.457Z,7.30
2019-01-12T11:20:48.070Z,6.42
2019-01-12T11:21:51.606Z,7.03
2019-01-12T11:22:55.418Z,8.18
2019-01-12T11:23:58.962Z,7.50
2019-01-12T11:25:03.086Z,6.90
2019-01-12T11:26:06.702Z,7.45
2019-01-12T11:27:12.367Z,8.83
2019-01-12T11:28:15.438Z,8.75
2019-01-12T11:29:18.982Z,8.98
2019-01-12T11:30:22.579Z,6.95
2019-01-12T11:31:26.114Z,8.28
2019-01-12T11:32:29.658Z,7.50
2019-01-12T11:33:33.207Z,7.12
2019-01-12T11:34:36.742Z,7.25
2019-01-12T11:35:40.344Z,8.15
2019-01-12T11:36:43.885Z,8.85
2019-01-12T11:37:47.589Z,7.60
2019-01-12T11:38:51.130Z,7.42
2019-01-12T11:39:54.593Z,7.97
2019-01-12T11:40:58.093Z,8.08
2019-01-12T11:42:01.563Z,7.67
2019-01-12T11:43:05.243Z,7.35
2019-01-12T11:44:08.805Z,7.15
2019-01-12T11:45:12.714Z,7.12
2019-01-12T11:46:16.254Z,7.78
2019-01-12T11:47:19.794Z,7.90
2019-01-12T11:48:23.386Z,7.45
2019-01-12T11:49:26.927Z,7.37
2019-01-12T11:50:30.471Z,8.00
2019-01-12T11:51:34.010Z,8.20
2019-01-12T11:52:37.578Z,7.05
2019-01-12T11:53:41.149Z,7.33
2019-01-12T11:54:44.618Z,7.70
2019-01-12T11:55:48.208Z,18.65
2019-01-12T11:56:51.742Z,10.78
2019-01-12T11:57:55.290Z,8.63
2019-01-12T11:58:58.826Z,7.60
2019-01-12T12:00:02.370Z,9.25
2019-01-12T12:01:06.017Z,7.37
2019-01-12T12:02:09.667Z,8.00
2019-01-12T12:03:13.254Z,8.35
2019-01-12T12:04:16.800Z,8.28
2019-01-12T12:05:20.712Z,7.75
2019-01-12T12:06:24.255Z,7.33
2019-01-12T12:07:27.794Z,8.70
2019-01-12T12:08:31.374Z,7.22
2019-01-12T12:09:34.906Z,6.80
2019-01-12T12:10:38.553Z,6.62
2019-01-12T12:11:42.083Z,6.42
2019-01-12T12:12:45.908Z,6.87
2019-01-12T12:13:49.441Z,5.85
2019-01-12T12:14:52.947Z,6.35
2019-01-12T12:15:56.488Z,6.80
2019-01-12T12:17:00.023Z,6.72
2019-01-12T12:18:03.684Z,7.70
2019-01-12T12:19:07.230Z,6.85
2019-01-12T12:20:16.335Z,6.28
2019-01-12T12:21:19.837Z,8.25
2019-01-12T12:22:23.314Z,6.53
2019-01-12T12:23:26.813Z,5.87
2019-01-12T12:24:30.286Z,5.83
2019-01-12T12:25:33.826Z,6.35
2019-01-12T12:26:37.382Z,5.92
2019-01-12T12:27:40.934Z,6.67
2019-01-12T12:28:44.514Z,6.10
2019-01-12T12:29:47.974Z,6.87
2019-01-12T12:30:51.441Z,6.00
2019-01-12T12:31:54.983Z,6.25
2019-01-12T12:32:58.689Z,6.55
2019-01-12T12:34:02.266Z,6.25
2019-01-12T12:35:07.548Z,6.47
2019-01-12T12:36:11.086Z,5.78
2019-01-12T12:37:14.590Z,6.45
2019-01-12T12:38:18.131Z,5.72
2019-01-12T12:39:21.675Z,6.58
2019-01-12T12:40:25.858Z,6.15
2019-01-12T12:41:29.442Z,6.22
2019-01-12T12:42:32.982Z,4.95
2019-01-12T12:43:36.446Z,6.60
2019-01-12T12:44:39.987Z,5.90
2019-01-12T12:45:43.527Z,6.70
2019-01-12T12:46:47.103Z,6.00
2019-01-12T12:47:50.679Z,6.60
2019-01-12T12:48:54.138Z,6.33
2019-01-12T12:49:57.618Z,6.03
2019-01-12T12:51:01.190Z,6.33
2019-01-12T12:52:05.062Z,5.17
2019-01-12T12:53:08.611Z,4.45
2019-01-12T12:54:12.215Z,4.75
2019-01-12T12:55:17.297Z,5.10
2019-01-12T12:56:20.956Z,5.95
2019-01-12T12:57:24.670Z,5.62
2019-01-12T12:58:28.134Z,5.00
2019-01-12T12:59:31.673Z,5.40
2019-01-12T13:00:35.343Z,9.08
2019-01-12T13:01:38.877Z,6.87
2019-01-12T13:02:42.491Z,5.83
2019-01-12T13:03:46.032Z,7.08
2019-01-12T13:04:49.571Z,6.55
2019-01-12T13:05:53.210Z,6.28
2019-01-12T13:06:56.791Z,10.50
2019-01-12T13:08:00.331Z,6.10
2019-01-12T13:09:05.810Z,6.50
2019-01-12T13:10:12.359Z,7.45
2019-01-12T13:11:16.011Z,7.17
2019-01-12T13:12:19.599Z,7.80
2019-01-12T13:13:23.139Z,6.30
2019-01-12T13:14:26.682Z,7.37
2019-01-12T13:15:30.294Z,4.90
2019-01-12T13:16:33.828Z,7.03
2019-01-12T13:17:37.402Z,6.03
2019-01-12T13:18:40.947Z,6.25
2019-01-12T13:19:44.482Z,5.80
2019-01-12T13:20:47.957Z,6.10
2019-01-12T13:21:51.572Z,6.20
2019-01-12T13:22:55.150Z,5.80
2019-01-12T13:23:58.690Z,7.47
2019-01-12T13:25:02.244Z,6.60
2019-01-12T13:26:05.789Z,5.75
2019-01-12T13:27:09.329Z,5.90
2019-01-12T13:28:12.823Z,6.30
2019-01-12T13:29:16.412Z,4.83
2019-01-12T13:30:24.626Z,5.10
2019-01-12T13:31:28.151Z,5.45
2019-01-12T13:32:31.689Z,5.87
2019-01-12T13:33:35.235Z,6.17
2019-01-12T13:34:38.801Z,6.40
2019-01-12T13:35:42.342Z,5.75
2019-01-12T13:36:45.810Z,5.45
2019-01-12T13:37:49.886Z,7.05
2019-01-12T13:38:53.438Z,4.75
2019-01-12T13:39:57.024Z,8.05
2019-01-12T13:41:00.555Z,5.25
2019-01-12T13:42:04.182Z,6.47
2019-01-12T13:43:07.656Z,4.87
2019-01-12T13:44:11.194Z,6.22
2019-01-12T13:45:17.116Z,6.30
2019-01-12T13:46:20.663Z,5.83
2019-01-12T13:47:24.236Z,6.30
2019-01-12T13:48:27.794Z,5.70
2019-01-12T13:49:31.258Z,6.55
2019-01-12T13:50:34.873Z,4.95
2019-01-12T13:51:38.454Z,5.37
2019-01-12T13:52:41.991Z,6.45
2019-01-12T13:53:45.530Z,5.67
2019-01-12T13:54:49.129Z,5.55
2019-01-12T13:55:52.666Z,6.08
2019-01-12T13:56:56.207Z,5.92
2019-01-12T13:57:59.751Z,5.72
2019-01-12T13:59:03.296Z,7.22
2019-01-12T14:00:24.618Z,5.60
2019-01-12T14:01:28.162Z,5.50
2019-01-12T14:02:31.769Z,5.50
2019-01-12T14:03:35.307Z,5.70
2019-01-12T14:04:38.858Z,6.25
2019-01-12T14:05:42.442Z,6.22
2019-01-12T14:06:45.988Z,5.47
2019-01-12T14:07:55.876Z,5.30